Twin Lakes, CO

1:43 PM MDT on July 26, 2017 (GMT -0600)
MTAPC2 | | Change Station

Elev 9830 ft 38.91 °N, 106.60 °W | Updated 76 days ago

Overcast
Overcast
39.0 °F
Feels Like 36 °F
N
4.0
Wind Variable Wind from North
Gusts 13.0 mph

Today
High -- | Low -- °F
--% Chance of Precip.
Yesterday
High -- | Low -- °F
Precip. -- in
Pressure 30.00 in
Visibility 10.0 miles
Clouds Mostly Cloudy 3900 ft
Overcast 6000 ft
Windchill 36 °F
Dew Point 28 °F
Humidity 65%
Rainfall 0.06 in
Snow Depth Not available.
6:02 AM 8:22 PM
Waxing Crescent, 15% visible
METAR KLXV 261853Z AUTO 36008KT 10SM BKN039 OVC060 18/08 A3050 RMK AO2 SLP158 T01780083
Pressure 30.00 in
Visibility 10.0 miles
Clouds Mostly Cloudy 3900 ft
Overcast 6000 ft
Windchill 36 °F
Dew Point 28 °F
Humidity 65%
Rainfall 0.06 in
Snow Depth Not available.
6:02 AM 8:22 PM
Waxing Crescent, 15% visible
METAR KLXV 261853Z AUTO 36008KT 10SM BKN039 OVC060 18/08 A3050 RMK AO2 SLP158 T01780083

Get Severe Weather Alerts

Thanks for signing up!

Be on the lookout for a verification email in your inbox.

You'll start receiving the daily forecast at 6 AM.

×

10-Day Weather Forecast

Almanac

Astronomy

Jul. 26, 2017 Rise Set
Actual Time
Civil Twilight
Nautical Twilight
Astronomical Twilight
Moon
Length of Visible Light
Length of Day
Tomorrow will be .
, % of the Moon is Illuminated

Today's Extremes

State Highs State Lows

Community

WunderPhotos

Category 6

Welcome to Category 6. This is the collective home for Weather Underground's featured writeups by Dr. Jeff Masters (right), Bob Henson (left), Chris Burt, and other regular contributors.

Nearby

Air Quality

  Air Quality AQ Index Pollutant
Not available.

Snow Depth

Station Depth Elevation

Earthquake Activity

City Distance Mag. Time & Date
Minimum magnitude displayed is 2.5.

Coastal Water Temperatures

Place Temperature

Stations

Nearby Weather Stations

Station Location Temp. Windchill Dew Point Humidity Wind Precip. Elev Updated Type
                   

Watches & Warnings

There are currently no watches in effect.